Terminal Aerodrome Forecast
Issued by NWS

Home | Current Version | Previous Version | Text Only | Print | Product List | Glossary On
Versions: 1 2 3 4 5 6 7 8 9 10 11 12 13 14
000
FTUS43 KOAX 252320
TAFSNY
TAF
KSNY 252320Z 2600/2624 03018G29KT 1SM -SN BR BKN015
      TEMPO 2600/2603 1/2SM SN FZFG OVC007
     FM260300 01015KT 3/4SM -SN BR OVC008
     FM260800 36011KT 1/2SM FZFG OVC004
     FM261500 36012KT 4SM BR OVC015
     FM261900 35012KT P6SM OVC025=

USA.gov is the U.S. government's official web portal to all federal, state and local government web resources and services.